PKMJPKWA

Guest
Details From PKMJ - Marshall Islands Intl
To PKWA - Bucholz Aaf
Flight Number -
Tags Generated
Created
Modified
Stats Distance 233 nm / 431 km
Max Altitude 0 ft / 0 m
Waypoints 3
Social Downloads 1
Likes 0
Share VATSIM

Download

Looking for another format? Having issues loading an existing format? Contact us
Advertisement - Login to hide

Notes

Generated

Route

PKMJ R1279 PKWA

ID Type Via Altitude Latitude Longitude Leg Dist Tot Dist Heading (true) Name
O PKMJ APT - 0 ft / 0 m 7.06216˚ 171.26144˚ - 0 nm - -
R1279 FIX - 0 ft / 0 m 8.71740˚ 167.72284˚ 232 nm 232 nm 296° / 295° -
O PKWA APT - 0 ft / 0 m 8.71740˚ 167.72284˚ 0 nm 232 nm 0° / 180° -

Altitude Profile

Advertisement - Login to hide

Weather


0- 5 10 15 20 25 30 35+ Temperature / ° C

Clouds and Precipitation
Forecast for 2017-12-18 06:00 UTC. Updated 2 hours ago

Ground ~20,000 ft ~40,000 ft Winds

PKMJ

Details ICAO PKMJ (MAJ)
Name MARSHALL ISLANDS INTL
Region Marshall Islands
Timezone Pacific/Majuro (UTC+12.0)
Stats Elevation 6 ft / 2 m (AMSL)
Location 7.064760° 171.272023°
Runways 1
Magnetic Variation 8.429° E

METAR

PKMJ 180650Z 05014KT 15SM FEW015 SCT050 BKN300 30/24 A2974

Decode

TAF

TAF PKMJ 180528Z 1806/1906 07015KT P6SM VCSH FEW015 SCT050

Decode

Departure Runways

ID Width Length Bearing (true) Bearing (mag) Surface Threshold Offset Overrun Length
07 150 ft / 46 m 7,898 ft / 2,407 m 76.08° 67.65° Asphalt 0 ft / 0 m 200 ft / 61 m
25 150 ft / 46 m 7,898 ft / 2,407 m 256.08° 247.65° Asphalt 0 ft / 0 m 200 ft / 61 m

PKWA

Details ICAO PKWA (KWA)
Name BUCHOLZ AAF
Region Marshall Islands
Timezone Pacific/Kwajalein (UTC+12.0)
Stats Elevation 9 ft / 3 m (AMSL)
Location 8.720121° 167.731662°
Runways 1
Magnetic Variation 7.618° E

METAR

PKWA 180700Z AUTO 06017G21KT 10SM SCT033 SCT045 28/21 A2977 RMK AO2 T02840212

Decode

TAF

TAF PKWA 180528Z 1806/1906 07016KT P6SM VCSH FEW020 SCT035

Decode

Destination Runways

ID Width Length Bearing (true) Bearing (mag) Surface Threshold Offset Overrun Length
06 198 ft / 60 m 6,666 ft / 2,032 m 72.67° 65.05° Asphalt 0 ft / 0 m 0 ft / 0 m
24 198 ft / 60 m 6,666 ft / 2,032 m 252.67° 245.05° Asphalt 0 ft / 0 m 0 ft / 0 m

Popular Alternatives